Time;durP1;ratioP1;P1;durP2;ratioP2;P2;SDS_P1;SDS_P2;PMS_P1;PMS_P2;Temp;Humidity;BMP_temperature;BMP_pressure;BME280_temperature;BME280_humidity;BME280_pressure;Samples;Min_cycle;Max_cycle;Signal;HPM_P1;HPM_P2
2024/03/26 08:39:56;;;;;;;;;;;;;;;6.99;77.95;97516.54;106875;1283;65321;31
2024/03/26 08:42:23;;;;;;;;;;;;;;;7.14;77.96;97516.26;104709;1273;73887;-35
2024/03/26 08:44:50;;;;;;;;;;;;;;;7.32;78.49;97521.73;104588;1275;61375;-40
2024/03/26 08:47:17;;;;;;;;;;;;;;;7.49;77.77;97518.48;104353;1273;61445;-38
2024/03/26 08:49:49;;;;;;;;;;;;;;;7.65;75.73;97523.98;104362;1272;75827;-38
2024/03/26 08:52:16;;;;;;;;;;;;;;;7.76;72.76;97523.02;104480;1275;67561;-41
2024/03/26 08:54:42;;;;;;;;;;;;;;;7.79;72.44;97519.99;104405;1273;73089;-37
2024/03/26 08:57:09;;;;;;;;;;;;;;;7.82;71.73;97521.25;105632;1275;61282;-40
2024/03/26 08:59:37;;;;;;;;;;;;;;;7.82;70.58;97522.47;104256;1272;61264;-38
2024/03/26 09:02:04;;;;;;;;;;;;;;;7.75;70.44;97521.70;104453;1272;75437;-39
2024/03/26 09:04:30;;;;;;;;;;;;;;;7.65;70.81;97519.29;104238;1275;66201;-38
2024/03/26 09:06:57;;;;;;;;;;;;;;;7.58;71.45;97519.84;105093;1274;73442;-38
2024/03/26 09:09:24;;;;;;;;;;;;;;;7.59;72.13;97520.85;108082;1271;59113;-45
2024/03/26 09:11:50;;;;;;;;;;;;;;;7.67;72.42;97520.66;108097;1272;59870;-40
2024/03/26 09:14:17;;;;;;;;;;;;;;;7.79;72.51;97518.77;105404;1272;73284;-38
2024/03/26 09:16:44;;;;;;;;;;;;;;;7.95;72.51;97517.73;108024;1273;66708;-39
2024/03/26 09:19:11;;;;;;;;;;;;;;;8.15;73.05;97519.30;104090;1273;72465;-37
2024/03/26 09:21:37;;;;;;;;;;;;;;;8.34;72.02;97514.84;104713;1266;61258;-37
2024/03/26 09:24:04;;;;;;;;;;;;;;;8.46;72.27;97513.77;104783;1264;61199;-39
2024/03/26 09:26:34;;;;;;;;;;;;;;;8.56;71.90;97508.92;108710;1262;74693;-38
2024/03/26 09:29:02;;;;;;;;;;;;;;;8.70;71.57;97508.45;106350;1265;61459;-38
2024/03/26 09:31:29;;;;;;;;;;;;;;;8.86;71.13;97506.77;104726;1263;73595;-40
2024/03/26 09:33:59;;;;;;;;;;;;;;;9.03;70.63;97501.17;105025;1265;61250;-40
2024/03/26 09:36:34;;;;;;;;;;;;;;;9.20;70.03;97504.30;104821;1263;61513;-37
2024/03/26 09:39:03;;;;;;;;;;;;;;;9.36;69.05;97506.39;104855;1267;75368;-38
2024/03/26 09:41:36;;;;;;;;;;;;;;;9.54;68.54;97501.95;105194;1266;66042;-38
2024/03/26 09:44:04;;;;;;;;;;;;;;;9.74;67.71;97506.14;105308;1267;72870;-35
2024/03/26 09:46:31;;;;;;;;;;;;;;;9.88;66.84;97508.43;104965;1266;61260;-39
2024/03/26 09:49:00;;;;;;;;;;;;;;;9.93;65.48;97518.23;106213;1266;60630;-37
2024/03/26 09:51:30;;;;;;;;;;;;;;;9.90;65.11;97520.17;104902;1263;75779;-36
2024/03/26 09:53:57;;;;;;;;;;;;;;;9.87;64.54;97523.48;104924;1267;67132;-37
2024/03/26 09:56:24;;;;;;;;;;;;;;;9.80;63.93;97524.20;104845;1263;73293;-35
2024/03/26 09:58:50;;;;;;;;;;;;;;;9.71;63.15;97524.10;104982;1267;61366;-36
2024/03/26 10:01:17;;;;;;;;;;;;;;;9.69;63.72;97520.45;104904;1263;61352;-36
2024/03/26 10:03:45;;;;;;;;;;;;;;;9.65;64.04;97517.96;104703;1266;74808;-37
2024/03/26 10:06:12;;;;;;;;;;;;;;;9.68;64.54;97518.30;105136;1268;66815;-39
2024/03/26 10:08:42;;;;;;;;;;;;;;;9.72;63.93;97519.23;104900;1263;73621;-34
2024/03/26 10:11:11;;;;;;;;;;;;;;;9.79;63.32;97523.28;105187;1268;61161;-38
2024/03/26 10:13:39;;;;;;;;;;;;;;;9.81;63.34;97524.79;105033;1266;61260;-38
2024/03/26 10:16:07;;;;;;;;;;;;;;;9.81;63.15;97526.11;104798;1263;75369;-39
2024/03/26 10:18:36;;;;;;;;;;;;;;;9.81;62.57;97528.26;105022;1269;66210;-38
2024/03/26 10:21:07;;;;;;;;;;;;;;;9.77;61.63;97535.13;105532;1263;73288;-36
2024/03/26 10:23:34;;;;;;;;;;;;;;;9.72;61.21;97532.60;104969;1265;61246;-37
2024/03/26 10:26:01;;;;;;;;;;;;;;;9.75;61.09;97537.67;105551;1266;61329;-39
2024/03/26 10:29:00;;;;;;;;;;;;;;;9.76;60.20;97538.47;104957;1263;75324;-35
2024/03/26 10:31:26;;;;;;;;;;;;;;;9.81;60.06;97536.65;105283;1266;64820;-40
2024/03/26 10:33:53;;;;;;;;;;;;;;;9.96;59.84;97533.41;104928;1263;73474;-38
2024/03/26 10:36:20;;;;;;;;;;;;;;;10.06;58.77;97535.73;104931;1268;61344;-41
2024/03/26 10:38:47;;;;;;;;;;;;;;;10.00;57.58;97537.59;104810;1268;61270;-39
2024/03/26 10:41:31;;;;;;;;;;;;;;;9.85;57.10;97532.45;104986;1263;74486;-39
2024/03/26 10:43:57;;;;;;;;;;;;;;;9.71;58.17;97525.39;105170;1267;64876;-39
2024/03/26 10:46:24;;;;;;;;;;;;;;;9.70;58.13;97526.48;104789;1263;73371;-42
2024/03/26 10:48:51;;;;;;;;;;;;;;;9.75;57.67;97521.25;104737;1263;62048;-40
2024/03/26 10:51:28;;;;;;;;;;;;;;;9.77;56.85;97519.39;104654;1263;241183;-40
2024/03/26 10:53:57;;;;;;;;;;;;;;;9.77;56.32;97515.48;104881;1263;75230;-38
2024/03/26 10:56:25;;;;;;;;;;;;;;;9.87;55.76;97514.98;106047;1263;67082;-39
2024/03/26 10:58:54;;;;;;;;;;;;;;;10.04;55.77;97513.81;104845;1263;73215;-37
2024/03/26 11:01:21;;;;;;;;;;;;;;;10.42;55.26;97512.51;107249;1264;61355;-40
2024/03/26 11:04:29;;;;;;;;;;;;;;;11.11;53.15;97512.64;103305;1285;598779;-39
2024/03/26 11:06:57;;;;;;;;;;;;;;;11.51;51.51;97511.92;103931;1272;61397;-40
2024/03/26 11:09:25;;;;;;;;;;;;;;;11.63;49.14;97510.75;108423;1266;59957;-39
2024/03/26 11:11:52;;;;;;;;;;;;;;;11.30;49.99;97508.91;105457;1271;73046;-39
2024/03/26 11:14:19;;;;;;;;;;;;;;;10.80;51.28;97504.61;104422;1272;66737;-39
2024/03/26 11:16:47;;;;;;;;;;;;;;;10.42;53.03;97499.18;104524;1273;73470;-37
2024/03/26 11:19:18;;;;;;;;;;;;;;;10.27;53.66;97501.99;104541;1280;210535;-37
2024/03/26 11:21:47;;;;;;;;;;;;;;;10.46;53.63;97499.46;107926;1269;60114;-41
2024/03/26 11:24:21;;;;;;;;;;;;;;;10.92;53.55;97492.52;104682;1270;71870;-39
2024/03/26 11:26:48;;;;;;;;;;;;;;;11.71;52.47;97487.95;105263;1266;66750;-38
2024/03/26 11:29:16;;;;;;;;;;;;;;;12.52;49.78;97480.94;104596;1269;73471;-37
2024/03/26 11:31:46;;;;;;;;;;;;;;;13.18;48.37;97477.20;104895;1277;60437;-40
2024/03/26 11:34:13;;;;;;;;;;;;;;;13.83;46.86;97478.40;104743;1264;60732;-39
2024/03/26 12:21:17;;;;;;;;;;;;;;;15.27;42.73;97478.32;104620;1273;60482;-36
2024/03/26 12:23:48;;;;;;;;;;;;;;;15.88;41.59;97470.62;104621;1270;75538;-36
2024/03/26 12:26:15;;;;;;;;;;;;;;;15.61;40.86;97476.95;104790;1267;67961;-39
2024/03/26 12:28:44;;;;;;;;;;;;;;;15.01;41.80;97480.90;104631;1267;73300;-36
2024/03/26 12:31:11;;;;;;;;;;;;;;;14.71;42.46;97476.73;104789;1273;60577;-38
2024/03/26 12:33:39;;;;;;;;;;;;;;;14.99;42.66;97478.92;104702;1270;60479;-39
2024/03/26 12:36:07;;;;;;;;;;;;;;;15.72;42.01;97475.73;104843;1264;72563;-37
2024/03/26 12:38:36;;;;;;;;;;;;;;;16.06;40.58;97472.52;105140;1263;66723;-40
2024/03/26 12:41:04;;;;;;;;;;;;;;;15.62;40.54;97474.52;105343;1271;73190;-37
2024/03/26 12:43:33;;;;;;;;;;;;;;;15.20;41.26;97468.65;105269;1263;60546;-40
2024/03/26 12:46:00;;;;;;;;;;;;;;;15.60;41.33;97464.27;105214;1258;60473;-40
2024/03/26 12:48:28;;;;;;;;;;;;;;;16.64;39.86;97453.83;105144;1263;74670;-40
2024/03/26 12:50:55;;;;;;;;;;;;;;;17.79;38.18;97450.11;105153;1264;66900;-42
2024/03/26 12:53:22;;;;;;;;;;;;;;;18.67;35.63;97445.77;105136;1263;72490;-40
2024/03/26 12:55:50;;;;;;;;;;;;;;;19.48;34.28;97451.02;104803;1263;60416;-37
2024/03/26 12:58:17;;;;;;;;;;;;;;;20.24;33.07;97448.20;105021;1257;60529;-39
2024/03/26 13:00:44;;;;;;;;;;;;;;;20.67;31.58;97449.70;105213;1259;74478;-40
2024/03/26 13:03:12;;;;;;;;;;;;;;;20.60;31.85;97447.50;104942;1263;67186;-39
2024/03/26 13:05:39;;;;;;;;;;;;;;;20.44;30.89;97462.98;105199;1263;74099;-38
2024/03/26 13:08:06;;;;;;;;;;;;;;;19.81;30.60;97464.20;105196;1269;60888;-38
2024/03/26 13:10:35;;;;;;;;;;;;;;;19.01;31.46;97466.78;105143;1262;60447;-40
2024/03/26 13:13:03;;;;;;;;;;;;;;;18.34;32.45;97459.81;105505;1257;74572;-39
2024/03/26 13:15:30;;;;;;;;;;;;;;;18.03;32.95;97463.80;105005;1262;67055;-37
2024/03/26 13:17:57;;;;;;;;;;;;;;;17.99;33.61;97462.00;105130;1263;73341;-38
2024/03/26 13:20:25;;;;;;;;;;;;;;;18.05;33.66;97458.58;105010;1264;60482;-43
2024/03/26 13:22:52;;;;;;;;;;;;;;;18.19;33.45;97455.20;105123;1263;60523;-42
2024/03/26 13:25:19;;;;;;;;;;;;;;;18.52;33.22;97454.11;105193;1258;74937;-39
2024/03/26 13:27:46;;;;;;;;;;;;;;;19.10;32.67;97453.49;105351;1261;66755;-38
2024/03/26 13:30:14;;;;;;;;;;;;;;;19.83;31.69;97455.01;104838;1258;73534;-40
2024/03/26 13:32:41;;;;;;;;;;;;;;;20.39;30.65;97453.27;104973;1262;60478;-36
2024/03/26 13:35:09;;;;;;;;;;;;;;;20.73;30.03;97453.60;105063;1259;60540;-39
2024/03/26 13:37:36;;;;;;;;;;;;;;;20.82;29.70;97450.91;105463;1263;74756;-38
2024/03/26 13:40:04;;;;;;;;;;;;;;;20.99;30.07;97448.33;104763;1264;66754;-38
2024/03/26 13:42:35;;;;;;;;;;;;;;;21.26;28.87;97449.45;105025;1257;73535;-40
2024/03/26 13:45:04;;;;;;;;;;;;;;;21.23;27.96;97446.14;104944;1258;60489;-48
2024/03/26 13:47:34;;;;;;;;;;;;;;;20.98;28.60;97439.15;105119;1258;60488;-38
2024/03/26 13:50:04;;;;;;;;;;;;;;;20.56;29.09;97436.86;105163;1260;74785;-37
2024/03/26 13:52:32;;;;;;;;;;;;;;;20.08;29.34;97438.17;105041;1257;67028;-37
2024/03/26 13:55:01;;;;;;;;;;;;;;;19.65;29.42;97438.85;105352;1257;73859;-35
2024/03/26 13:57:28;;;;;;;;;;;;;;;19.14;30.21;97443.70;105161;1262;61000;-37
2024/03/26 13:59:57;;;;;;;;;;;;;;;18.50;30.88;97437.71;105069;1257;60532;-38
2024/03/26 14:02:24;;;;;;;;;;;;;;;17.67;31.85;97440.28;105197;1263;74140;-37
2024/03/26 14:04:56;;;;;;;;;;;;;;;16.89;33.10;97440.11;105062;1261;67123;-37
2024/03/26 14:07:23;;;;;;;;;;;;;;;16.16;33.81;97437.39;105012;1258;72890;-37
2024/03/26 14:09:50;;;;;;;;;;;;;;;15.56;34.58;97436.32;105446;1261;61718;-36
2024/03/26 14:12:17;;;;;;;;;;;;;;;15.13;36.21;97438.90;105124;1257;60465;-37
2024/03/26 14:14:45;;;;;;;;;;;;;;;14.95;36.86;97439.49;105033;1258;73395;-37
2024/03/26 14:17:12;;;;;;;;;;;;;;;14.98;37.55;97439.22;104877;1263;66984;-36
2024/03/26 14:19:39;;;;;;;;;;;;;;;14.99;38.03;97438.23;105289;1257;73430;-38
2024/03/26 14:22:06;;;;;;;;;;;;;;;14.95;37.60;97432.33;105077;1257;61386;-37
2024/03/26 14:24:33;;;;;;;;;;;;;;;14.98;37.72;97435.21;105159;1257;60354;-37
2024/03/26 14:27:00;;;;;;;;;;;;;;;15.01;37.82;97439.63;105015;1257;74144;-36
2024/03/26 14:29:27;;;;;;;;;;;;;;;14.94;37.98;97441.53;104775;1263;66059;-37
2024/03/26 14:31:57;;;;;;;;;;;;;;;14.90;37.80;97443.56;105144;1257;72976;-35
2024/03/26 14:34:24;;;;;;;;;;;;;;;14.85;37.60;97441.90;105413;1263;60540;-34
2024/03/26 14:36:52;;;;;;;;;;;;;;;14.72;37.81;97442.84;105011;1257;60456;-38
2024/03/26 14:39:20;;;;;;;;;;;;;;;14.54;37.77;97438.28;105553;1263;74321;-37
2024/03/26 14:41:47;;;;;;;;;;;;;;;14.35;38.14;97439.59;105200;1263;65917;-37
2024/03/26 14:44:15;;;;;;;;;;;;;;;14.05;38.52;97440.13;104911;1258;73872;-37
2024/03/26 14:46:58;;;;;;;;;;;;;;;13.84;39.42;97434.79;105146;1261;60851;-39
2024/03/26 14:49:25;;;;;;;;;;;;;;;13.69;39.85;97433.80;105274;1257;60432;-39
2024/03/26 14:51:52;;;;;;;;;;;;;;;13.51;40.46;97428.73;105035;1257;74356;-38
2024/03/26 14:54:19;;;;;;;;;;;;;;;13.41;40.36;97430.72;105261;1263;67069;-38
2024/03/26 14:56:46;;;;;;;;;;;;;;;13.31;40.54;97427.84;105565;1257;73352;-40
2024/03/26 14:59:14;;;;;;;;;;;;;;;13.18;40.54;97427.61;105319;1263;60364;-39
2024/03/26 15:01:42;;;;;;;;;;;;;;;13.06;41.47;97429.83;104997;1257;61248;-37
2024/03/26 15:04:09;;;;;;;;;;;;;;;13.01;41.51;97425.92;105038;1257;74369;-38
2024/03/26 15:06:36;;;;;;;;;;;;;;;13.06;41.83;97427.31;104858;1262;66980;-35
2024/03/26 15:09:05;;;;;;;;;;;;;;;13.19;41.78;97428.49;104944;1263;73253;-38
2024/03/26 15:11:33;;;;;;;;;;;;;;;13.35;41.91;97426.85;104893;1261;60450;-37
2024/03/26 15:14:01;;;;;;;;;;;;;;;13.54;42.03;97429.60;105182;1263;60402;-36
2024/03/26 15:16:29;;;;;;;;;;;;;;;13.64;41.57;97432.27;109033;1257;74695;-39
2024/03/26 15:18:56;;;;;;;;;;;;;;;13.58;41.45;97431.13;105577;1263;67054;-38
2024/03/26 15:21:23;;;;;;;;;;;;;;;13.37;41.49;97437.70;104958;1257;72504;-38
2024/03/26 15:23:50;;;;;;;;;;;;;;;13.26;41.77;97439.39;104927;1264;60468;-40
2024/03/26 15:26:20;;;;;;;;;;;;;;;13.13;41.80;97441.83;104927;1260;60572;-36
2024/03/26 15:34:21;;;;;;;;;;;;;;;12.54;41.97;97438.70;105134;1259;73240;-35
2024/03/26 15:36:49;;;;;;;;;;;;;;;12.38;41.84;97441.45;104921;1264;61369;-36
2024/03/26 15:39:17;;;;;;;;;;;;;;;12.09;42.32;97442.52;104969;1263;61288;-37
2024/03/26 15:46:38;;;;;;;;;;;;;;;11.20;45.06;97456.35;105139;1260;67621;-44
2024/03/26 15:53:54;;;;;;;;;;;;;;;10.53;47.06;97457.41;105258;1257;61259;-45
2024/03/26 15:56:30;;;;;;;;;;;;;;;10.36;47.75;97456.20;105306;1257;61260;-47
2024/03/26 15:58:57;;;;;;;;;;;;;;;10.21;48.22;97454.64;105348;1260;75117;-48
2024/03/26 16:01:25;;;;;;;;;;;;;;;10.09;48.68;97455.09;105370;1260;66937;-46
2024/03/26 16:03:54;;;;;;;;;;;;;;;9.98;49.20;97450.45;105269;1257;73431;-41
2024/03/26 16:06:21;;;;;;;;;;;;;;;9.86;49.31;97448.98;105417;1260;61340;-42
2024/03/26 16:08:49;;;;;;;;;;;;;;;9.77;49.36;97445.73;105344;1257;61235;-44
2024/03/26 16:11:35;;;;;;;;;;;;;;;9.68;49.70;97443.40;105328;1260;75472;-51
2024/03/26 16:14:03;;;;;;;;;;;;;;;9.59;49.97;97443.36;105277;1260;67016;-52
2024/03/26 16:16:30;;;;;;;;;;;;;;;9.52;50.56;97442.05;105310;1257;73360;-48
2024/03/26 16:18:58;;;;;;;;;;;;;;;9.46;50.86;97439.60;105225;1260;61362;-52
2024/03/26 16:21:25;;;;;;;;;;;;;;;9.37;51.47;97434.73;105680;1260;61285;-46
2024/03/26 16:23:55;;;;;;;;;;;;;;;9.26;52.06;97435.80;105477;1258;75404;-49
2024/03/26 16:26:22;;;;;;;;;;;;;;;9.14;52.70;97432.27;105347;1260;66145;-49
2024/03/26 16:28:49;;;;;;;;;;;;;;;9.02;52.96;97436.22;105277;1257;73440;-44
2024/03/26 16:31:24;;;;;;;;;;;;;;;8.92;53.40;97435.48;105607;1260;61346;-47
2024/03/26 16:34:10;;;;;;;;;;;;;;;8.81;53.78;97439.19;105234;1260;61227;-45
2024/03/26 16:36:37;;;;;;;;;;;;;;;8.72;54.03;97440.19;105504;1257;75303;-49
2024/03/26 16:43:04;;;;;;;;;;;;;;;8.46;54.99;97438.77;105247;1257;73557;-47
2024/03/26 16:45:31;;;;;;;;;;;;;;;8.40;55.67;97437.74;105619;1260;61170;-47
2024/03/26 16:47:59;;;;;;;;;;;;;;;8.35;56.03;97437.39;105298;1256;61154;-43
2024/03/26 16:50:26;;;;;;;;;;;;;;;8.27;56.54;97438.77;105357;1257;74551;-38
2024/03/26 16:52:53;;;;;;;;;;;;;;;8.15;57.33;97440.73;105451;1260;66729;-52
2024/03/26 16:55:20;;;;;;;;;;;;;;;8.05;57.81;97440.39;105211;1257;73446;-50
2024/03/26 16:57:47;;;;;;;;;;;;;;;7.95;58.21;97442.38;105439;1260;61257;-52
2024/03/26 17:00:15;;;;;;;;;;;;;;;7.91;59.39;97441.41;105360;1257;61195;-42
2024/03/26 17:02:43;;;;;;;;;;;;;;;7.86;59.81;97443.34;105419;1260;75318;-50
2024/03/26 17:05:11;;;;;;;;;;;;;;;7.77;60.08;97440.47;105854;1260;67020;-48
2024/03/26 17:07:38;;;;;;;;;;;;;;;7.71;60.38;97438.18;105331;1253;72808;-41
2024/03/26 17:10:22;;;;;;;;;;;;;;;7.69;61.26;97440.09;105631;1257;61221;-45
2024/03/26 17:12:50;;;;;;;;;;;;;;;7.67;61.73;97441.39;105601;1254;61230;-46
2024/03/26 17:15:17;;;;;;;;;;;;;;;7.64;62.22;97437.73;106065;1254;74526;-41
2024/03/26 17:17:44;;;;;;;;;;;;;;;7.62;62.47;97438.04;105838;1257;66228;-39
2024/03/26 17:20:12;;;;;;;;;;;;;;;7.54;62.58;97435.78;105534;1254;75011;-44
2024/03/26 17:22:44;;;;;;;;;;;;;;;7.46;63.02;97433.73;105745;1254;61384;-43
2024/03/26 17:25:11;;;;;;;;;;;;;;;7.42;63.62;97436.13;105856;1256;61234;-43
2024/03/26 17:27:38;;;;;;;;;;;;;;;7.38;64.14;97434.52;105732;1252;75460;-43
2024/03/26 17:30:10;;;;;;;;;;;;;;;7.32;64.22;97435.80;105621;1256;66920;-43
2024/03/26 17:32:37;;;;;;;;;;;;;;;7.28;64.55;97432.70;105632;1254;72594;-44
2024/03/26 17:35:06;;;;;;;;;;;;;;;7.25;64.45;97427.14;105666;1256;61430;-43
2024/03/26 17:37:48;;;;;;;;;;;;;;;7.21;64.84;97423.28;105832;1252;61243;-43
2024/03/26 17:40:16;;;;;;;;;;;;;;;7.16;65.32;97418.16;105941;1253;75368;-43
2024/03/26 17:42:43;;;;;;;;;;;;;;;7.12;66.02;97413.05;105597;1256;65910;-42
2024/03/26 17:45:10;;;;;;;;;;;;;;;7.08;66.38;97414.63;105579;1254;72646;-44
2024/03/26 17:47:38;;;;;;;;;;;;;;;6.96;66.44;97412.45;105728;1256;61246;-44
2024/03/26 17:50:05;;;;;;;;;;;;;;;6.82;66.94;97414.27;105718;1254;61231;-43
2024/03/26 17:52:33;;;;;;;;;;;;;;;6.70;67.52;97415.14;105584;1254;75381;-44
2024/03/26 17:55:00;;;;;;;;;;;;;;;6.58;67.94;97418.30;105613;1256;66955;-42
2024/03/26 17:57:27;;;;;;;;;;;;;;;6.50;68.45;97423.43;105793;1256;75351;-43
2024/03/26 17:59:55;;;;;;;;;;;;;;;6.45;69.07;97425.50;105744;1256;61244;-43
2024/03/26 18:02:22;;;;;;;;;;;;;;;6.40;69.36;97422.81;105604;1254;61151;-44
2024/03/26 18:05:07;;;;;;;;;;;;;;;6.38;69.87;97425.27;105747;1256;74398;-44
2024/03/26 18:07:34;;;;;;;;;;;;;;;6.39;70.27;97429.95;105735;1257;66047;-44
2024/03/26 18:10:02;;;;;;;;;;;;;;;6.38;70.51;97431.92;105687;1254;73343;-44
2024/03/26 18:12:29;;;;;;;;;;;;;;;6.34;70.68;97431.15;105692;1256;61320;-43
2024/03/26 18:14:56;;;;;;;;;;;;;;;6.30;71.07;97431.29;105736;1254;61228;-45
2024/03/26 18:17:23;;;;;;;;;;;;;;;6.25;71.57;97430.80;105776;1257;74595;-43
2024/03/26 18:19:51;;;;;;;;;;;;;;;6.24;71.68;97430.95;105706;1256;66912;-45
2024/03/26 18:22:18;;;;;;;;;;;;;;;6.24;71.92;97431.76;105621;1254;71712;-43
2024/03/26 18:25:06;;;;;;;;;;;;;;;6.24;72.22;97428.08;105725;1256;61330;-43
2024/03/26 18:27:36;;;;;;;;;;;;;;;6.20;72.14;97426.45;105822;1257;61329;-43
2024/03/26 18:30:21;;;;;;;;;;;;;;;6.14;72.35;97425.48;105602;1257;75541;-43
2024/03/26 18:32:48;;;;;;;;;;;;;;;6.08;72.32;97432.11;105668;1256;66180;-43
2024/03/26 18:35:16;;;;;;;;;;;;;;;6.01;72.46;97432.36;105862;1254;73514;-43
2024/03/26 18:38:01;;;;;;;;;;;;;;;5.94;72.75;97431.27;105637;1257;61349;-44
2024/03/26 18:40:55;;;;;;;;;;;;;;;5.89;72.95;97430.60;105629;1254;61336;-44
2024/03/26 18:43:23;;;;;;;;;;;;;;;5.89;73.08;97425.71;105663;1256;77236;-44
2024/03/26 18:45:50;;;;;;;;;;;;;;;5.85;73.10;97426.75;105649;1256;67711;-45
2024/03/26 18:48:18;;;;;;;;;;;;;;;5.80;73.06;97427.33;105496;1254;73582;-44
2024/03/26 18:51:04;;;;;;;;;;;;;;;5.74;72.98;97426.39;105614;1258;61340;-44
2024/03/26 18:53:32;;;;;;;;;;;;;;;5.71;73.05;97431.19;105532;1259;61248;-44
2024/03/26 18:56:00;;;;;;;;;;;;;;;5.68;72.98;97430.95;105622;1254;77536;-45
2024/03/26 18:58:27;;;;;;;;;;;;;;;5.65;73.12;97433.61;105604;1258;67101;-44
2024/03/26 19:00:55;;;;;;;;;;;;;;;5.62;73.09;97432.35;105627;1254;73046;-44
2024/03/26 19:03:22;;;;;;;;;;;;;;;5.60;73.13;97433.41;105587;1254;61811;-44
2024/03/26 19:05:50;;;;;;;;;;;;;;;5.58;73.25;97432.04;105639;1254;61346;-46
2024/03/26 19:08:21;;;;;;;;;;;;;;;5.57;73.31;97428.80;105620;1254;75206;-45
2024/03/26 19:10:55;;;;;;;;;;;;;;;5.57;73.43;97426.41;105633;1258;67092;-44
2024/03/26 19:13:22;;;;;;;;;;;;;;;5.55;73.44;97424.83;105560;1254;73297;-44
2024/03/26 19:15:49;;;;;;;;;;;;;;;5.52;73.62;97422.39;105565;1259;61262;-45
2024/03/26 19:18:29;;;;;;;;;;;;;;;5.47;73.69;97424.48;105410;1254;61322;-43
2024/03/26 19:20:57;;;;;;;;;;;;;;;5.41;73.85;97423.76;105626;1256;75441;-45
2024/03/26 19:23:30;;;;;;;;;;;;;;;5.34;74.01;97422.08;105620;1259;67479;-44
2024/03/26 19:26:02;;;;;;;;;;;;;;;5.27;74.44;97421.52;105624;1254;73513;-43
2024/03/26 19:28:29;;;;;;;;;;;;;;;5.22;74.78;97419.40;105566;1258;62350;-43
2024/03/26 19:30:57;;;;;;;;;;;;;;;5.19;75.17;97424.20;105611;1254;61944;-43
2024/03/26 19:33:32;;;;;;;;;;;;;;;5.16;75.26;97418.83;105554;1257;75451;-46
2024/03/26 19:36:00;;;;;;;;;;;;;;;5.15;75.44;97422.98;105621;1253;66186;-46
2024/03/26 19:38:27;;;;;;;;;;;;;;;5.14;75.63;97426.48;105641;1258;72506;-45
2024/03/26 19:40:55;;;;;;;;;;;;;;;5.12;75.65;97429.79;105599;1259;61353;-43
2024/03/26 19:43:39;;;;;;;;;;;;;;;5.09;75.79;97430.48;105501;1254;61241;-43
2024/03/26 19:46:07;;;;;;;;;;;;;;;5.06;75.88;97429.20;105564;1254;75449;-41
2024/03/26 19:48:35;;;;;;;;;;;;;;;5.03;75.91;97427.20;105774;1254;67161;-44
2024/03/26 19:51:02;;;;;;;;;;;;;;;5.02;76.07;97428.52;105642;1254;73545;-42
2024/03/26 19:53:30;;;;;;;;;;;;;;;5.00;76.21;97430.75;105724;1256;61254;-45
2024/03/26 19:55:57;;;;;;;;;;;;;;;4.97;76.30;97423.64;105697;1254;61195;-42
2024/03/26 19:58:25;;;;;;;;;;;;;;;4.95;76.44;97426.56;105699;1260;75520;-45
2024/03/26 20:00:59;;;;;;;;;;;;;;;4.92;76.46;97423.80;105666;1256;67039;-45
2024/03/26 20:03:38;;;;;;;;;;;;;;;4.87;76.74;97424.98;105735;1256;72584;-44
2024/03/26 20:06:27;;;;;;;;;;;;;;;4.83;76.87;97421.59;105674;1256;61246;-44
2024/03/26 20:09:07;;;;;;;;;;;;;;;4.79;77.02;97426.42;105719;1254;61238;-45
2024/03/26 20:11:34;;;;;;;;;;;;;;;4.76;77.20;97427.69;105731;1253;75361;-44
2024/03/26 20:14:03;;;;;;;;;;;;;;;4.76;77.26;97426.05;105634;1256;67036;-43
2024/03/26 20:16:39;;;;;;;;;;;;;;;4.75;77.35;97424.41;105572;1254;72447;-44
2024/03/26 20:19:24;;;;;;;;;;;;;;;4.73;77.42;97431.62;105650;1256;61382;-43
2024/03/26 20:21:52;;;;;;;;;;;;;;;4.69;77.51;97432.85;105750;1253;61241;-46
2024/03/26 20:24:20;;;;;;;;;;;;;;;4.65;77.65;97436.03;105517;1262;75199;-44
2024/03/26 20:26:56;;;;;;;;;;;;;;;4.62;77.77;97440.38;105629;1256;67178;-44
2024/03/26 20:29:23;;;;;;;;;;;;;;;4.61;77.79;97445.32;105627;1254;73401;-43
2024/03/26 20:31:51;;;;;;;;;;;;;;;4.60;77.82;97443.83;105641;1256;61330;-42
2024/03/26 20:34:18;;;;;;;;;;;;;;;4.62;77.96;97444.05;105603;1254;61198;-45
2024/03/26 20:36:45;;;;;;;;;;;;;;;4.64;77.74;97446.55;105893;1252;74427;-44
2024/03/26 20:39:12;;;;;;;;;;;;;;;4.64;77.78;97442.09;105729;1257;66735;-41
2024/03/26 20:41:39;;;;;;;;;;;;;;;4.62;77.90;97443.19;105678;1254;73082;-46
2024/03/26 20:44:07;;;;;;;;;;;;;;;4.57;77.91;97449.83;105722;1256;61263;-44
2024/03/26 20:46:34;;;;;;;;;;;;;;;4.50;77.99;97447.53;105645;1254;61879;-45
2024/03/26 20:49:01;;;;;;;;;;;;;;;4.46;78.01;97447.42;105677;1259;75427;-43
2024/03/26 20:51:29;;;;;;;;;;;;;;;4.43;78.21;97451.09;105602;1257;64938;-43
2024/03/26 20:53:56;;;;;;;;;;;;;;;4.42;78.52;97450.92;105644;1254;73308;-43
2024/03/26 20:56:23;;;;;;;;;;;;;;;4.42;78.51;97449.29;105649;1258;61330;-44
2024/03/26 20:58:50;;;;;;;;;;;;;;;4.42;78.57;97449.77;105626;1254;61286;-44
2024/03/26 21:01:17;;;;;;;;;;;;;;;4.43;78.62;97452.73;105614;1255;75429;-44
2024/03/26 21:03:45;;;;;;;;;;;;;;;4.42;78.79;97450.66;105581;1258;66404;-44
2024/03/26 21:06:12;;;;;;;;;;;;;;;4.41;78.89;97450.33;105567;1259;73676;-45
2024/03/26 21:08:39;;;;;;;;;;;;;;;4.41;78.92;97450.27;105688;1267;61819;-44
2024/03/26 21:11:10;;;;;;;;;;;;;;;4.37;78.90;97454.05;105630;1254;61272;-44
2024/03/26 21:13:38;;;;;;;;;;;;;;;4.33;78.77;97457.48;105654;1256;75013;-44
2024/03/26 21:16:06;;;;;;;;;;;;;;;4.24;78.88;97456.56;105663;1260;65120;-44
2024/03/26 21:18:40;;;;;;;;;;;;;;;4.12;79.07;97460.41;105597;1258;73694;-43
2024/03/26 21:21:11;;;;;;;;;;;;;;;4.06;79.50;97462.41;105617;1259;61237;-45
2024/03/26 21:23:38;;;;;;;;;;;;;;;4.04;79.72;97460.08;105657;1256;61161;-45
2024/03/26 21:26:05;;;;;;;;;;;;;;;4.03;79.84;97461.61;105543;1254;75433;-43
2024/03/26 21:28:32;;;;;;;;;;;;;;;4.02;80.01;97463.94;105607;1257;66073;-38
2024/03/26 21:31:00;;;;;;;;;;;;;;;4.01;80.20;97466.42;105752;1254;72367;-38
2024/03/26 21:33:27;;;;;;;;;;;;;;;3.99;80.30;97468.33;105570;1259;61346;-42
2024/03/26 21:35:54;;;;;;;;;;;;;;;3.97;80.24;97469.48;105715;1254;61240;-42
2024/03/26 21:38:21;;;;;;;;;;;;;;;3.93;80.35;97469.52;105657;1259;75440;-44
2024/03/26 21:40:55;;;;;;;;;;;;;;;3.90;80.49;97468.34;105682;1260;65848;-39
2024/03/26 21:43:22;;;;;;;;;;;;;;;3.89;80.65;97467.13;105710;1254;71877;-45
2024/03/26 21:45:49;;;;;;;;;;;;;;;3.88;80.66;97462.37;105743;1259;61241;-42
2024/03/26 21:48:17;;;;;;;;;;;;;;;3.88;80.79;97462.94;105758;1254;61303;-43
2024/03/26 21:50:44;;;;;;;;;;;;;;;3.88;80.71;97462.41;105606;1255;75633;-41
2024/03/26 21:53:11;;;;;;;;;;;;;;;3.86;80.76;97457.88;105781;1257;66365;-42
2024/03/26 21:55:42;;;;;;;;;;;;;;;3.85;80.75;97461.69;105710;1255;73471;-42
2024/03/26 21:58:09;;;;;;;;;;;;;;;3.83;80.67;97457.31;105772;1256;61883;-42
2024/03/26 22:00:36;;;;;;;;;;;;;;;3.82;80.74;97461.42;105811;1255;61251;-44
2024/03/26 22:03:04;;;;;;;;;;;;;;;3.79;80.74;97458.92;105628;1257;75183;-44
2024/03/26 22:05:31;;;;;;;;;;;;;;;3.80;80.75;97457.60;105615;1257;64709;-43
2024/03/26 22:07:58;;;;;;;;;;;;;;;3.79;80.61;97452.88;105613;1258;73471;-42
2024/03/26 22:10:27;;;;;;;;;;;;;;;3.78;80.81;97454.05;105742;1260;61348;-42
2024/03/26 22:12:54;;;;;;;;;;;;;;;3.75;80.53;97449.17;105590;1254;61667;-44
2024/03/26 22:15:21;;;;;;;;;;;;;;;3.72;80.60;97457.10;105554;1254;75876;-43
2024/03/26 22:17:49;;;;;;;;;;;;;;;3.71;80.69;97459.06;105736;1260;67153;-43
2024/03/26 22:20:16;;;;;;;;;;;;;;;3.70;80.53;97454.80;105961;1259;73211;-43
2024/03/26 22:22:44;;;;;;;;;;;;;;;3.69;80.53;97452.27;105804;1259;61244;-43
2024/03/26 22:25:11;;;;;;;;;;;;;;;3.69;80.54;97450.91;106069;1254;61288;-42
2024/03/26 22:27:38;;;;;;;;;;;;;;;3.67;80.37;97451.63;105514;1259;74633;-43
2024/03/26 22:30:08;;;;;;;;;;;;;;;3.64;80.33;97448.43;106278;1257;65565;-44
2024/03/26 22:32:38;;;;;;;;;;;;;;;3.63;80.39;97447.80;105589;1260;72604;-44
2024/03/26 22:35:07;;;;;;;;;;;;;;;3.60;80.29;97447.25;105485;1260;61238;-42